sensor_id;sensor_type;location;lat;lon;timestamp;P1;durP1;ratioP1;P2;durP2;ratioP2
44564;SDS011;30275;51.822;-0.326;2023-05-03T00:00:52;5.22;;;3.90;;
44564;SDS011;30275;51.822;-0.326;2023-05-03T00:03:18;7.38;;;4.72;;
44564;SDS011;30275;51.822;-0.326;2023-05-03T00:05:47;8.45;;;4.40;;
44564;SDS011;30275;51.822;-0.326;2023-05-03T00:08:13;7.22;;;4.25;;
44564;SDS011;30275;51.822;-0.326;2023-05-03T00:10:39;6.22;;;4.28;;
44564;SDS011;30275;51.822;-0.326;2023-05-03T00:13:05;6.13;;;4.18;;
44564;SDS011;30275;51.822;-0.326;2023-05-03T00:15:31;5.85;;;4.05;;
44564;SDS011;30275;51.822;-0.326;2023-05-03T00:17:57;8.60;;;4.03;;
44564;SDS011;30275;51.822;-0.326;2023-05-03T00:20:22;6.80;;;4.82;;
44564;SDS011;30275;51.822;-0.326;2023-05-03T00:22:49;6.97;;;3.95;;
44564;SDS011;30275;51.822;-0.326;2023-05-03T00:25:15;7.78;;;4.22;;
44564;SDS011;30275;51.822;-0.326;2023-05-03T00:27:40;7.30;;;4.38;;
44564;SDS011;30275;51.822;-0.326;2023-05-03T00:30:06;6.75;;;4.40;;
44564;SDS011;30275;51.822;-0.326;2023-05-03T00:32:33;7.68;;;4.65;;
44564;SDS011;30275;51.822;-0.326;2023-05-03T00:34:59;6.28;;;4.43;;
44564;SDS011;30275;51.822;-0.326;2023-05-03T00:37:25;7.13;;;4.95;;
44564;SDS011;30275;51.822;-0.326;2023-05-03T00:39:51;7.13;;;4.93;;
44564;SDS011;30275;51.822;-0.326;2023-05-03T00:42:17;8.00;;;4.07;;
44564;SDS011;30275;51.822;-0.326;2023-05-03T00:44:43;7.13;;;4.45;;
44564;SDS011;30275;51.822;-0.326;2023-05-03T00:47:08;6.30;;;3.95;;
44564;SDS011;30275;51.822;-0.326;2023-05-03T00:49:34;7.80;;;4.88;;
44564;SDS011;30275;51.822;-0.326;2023-05-03T00:52:00;6.68;;;4.47;;
44564;SDS011;30275;51.822;-0.326;2023-05-03T00:54:26;10.35;;;4.55;;
44564;SDS011;30275;51.822;-0.326;2023-05-03T00:56:53;7.07;;;4.50;;
44564;SDS011;30275;51.822;-0.326;2023-05-03T00:59:20;7.68;;;4.90;;
44564;SDS011;30275;51.822;-0.326;2023-05-03T01:01:50;10.93;;;4.65;;
44564;SDS011;30275;51.822;-0.326;2023-05-03T01:04:17;6.78;;;4.28;;
44564;SDS011;30275;51.822;-0.326;2023-05-03T01:06:47;8.30;;;4.70;;
44564;SDS011;30275;51.822;-0.326;2023-05-03T01:09:26;9.13;;;3.97;;
44564;SDS011;30275;51.822;-0.326;2023-05-03T01:14:46;8.38;;;3.72;;
44564;SDS011;30275;51.822;-0.326;2023-05-03T01:17:20;6.93;;;4.63;;
44564;SDS011;30275;51.822;-0.326;2023-05-03T01:20:00;6.90;;;4.10;;
44564;SDS011;30275;51.822;-0.326;2023-05-03T01:25:22;5.25;;;3.88;;
44564;SDS011;30275;51.822;-0.326;2023-05-03T01:27:48;7.57;;;4.50;;
44564;SDS011;30275;51.822;-0.326;2023-05-03T01:30:14;7.05;;;4.18;;
44564;SDS011;30275;51.822;-0.326;2023-05-03T01:33:02;8.43;;;4.40;;
44564;SDS011;30275;51.822;-0.326;2023-05-03T01:35:36;9.55;;;4.55;;
44564;SDS011;30275;51.822;-0.326;2023-05-03T01:38:08;6.32;;;4.50;;
44564;SDS011;30275;51.822;-0.326;2023-05-03T01:40:42;8.35;;;5.30;;
44564;SDS011;30275;51.822;-0.326;2023-05-03T01:43:12;6.25;;;4.60;;
44564;SDS011;30275;51.822;-0.326;2023-05-03T01:45:41;7.35;;;4.50;;
44564;SDS011;30275;51.822;-0.326;2023-05-03T01:48:16;7.38;;;4.60;;
44564;SDS011;30275;51.822;-0.326;2023-05-03T01:50:43;11.00;;;5.00;;
44564;SDS011;30275;51.822;-0.326;2023-05-03T01:53:09;5.65;;;4.15;;
44564;SDS011;30275;51.822;-0.326;2023-05-03T01:55:35;10.38;;;4.65;;
44564;SDS011;30275;51.822;-0.326;2023-05-03T01:58:01;6.93;;;4.43;;
44564;SDS011;30275;51.822;-0.326;2023-05-03T02:00:27;5.22;;;3.90;;
44564;SDS011;30275;51.822;-0.326;2023-05-03T02:02:53;8.80;;;4.25;;
44564;SDS011;30275;51.822;-0.326;2023-05-03T02:05:18;9.70;;;4.10;;
44564;SDS011;30275;51.822;-0.326;2023-05-03T02:07:44;6.85;;;4.47;;
44564;SDS011;30275;51.822;-0.326;2023-05-03T02:10:10;7.35;;;4.43;;
44564;SDS011;30275;51.822;-0.326;2023-05-03T02:12:44;8.88;;;4.65;;
44564;SDS011;30275;51.822;-0.326;2023-05-03T02:15:11;8.27;;;4.30;;
44564;SDS011;30275;51.822;-0.326;2023-05-03T02:17:37;5.57;;;3.58;;
44564;SDS011;30275;51.822;-0.326;2023-05-03T02:20:04;8.00;;;4.50;;
44564;SDS011;30275;51.822;-0.326;2023-05-03T02:22:31;12.32;;;5.18;;
44564;SDS011;30275;51.822;-0.326;2023-05-03T02:24:57;6.47;;;4.40;;
44564;SDS011;30275;51.822;-0.326;2023-05-03T02:27:23;7.72;;;4.45;;
44564;SDS011;30275;51.822;-0.326;2023-05-03T02:29:49;8.15;;;4.50;;
44564;SDS011;30275;51.822;-0.326;2023-05-03T02:32:14;7.78;;;4.43;;
44564;SDS011;30275;51.822;-0.326;2023-05-03T02:34:40;8.25;;;4.07;;
44564;SDS011;30275;51.822;-0.326;2023-05-03T02:37:08;8.20;;;4.70;;
44564;SDS011;30275;51.822;-0.326;2023-05-03T02:39:33;9.18;;;4.15;;
44564;SDS011;30275;51.822;-0.326;2023-05-03T02:41:59;6.95;;;3.92;;
44564;SDS011;30275;51.822;-0.326;2023-05-03T02:44:25;7.85;;;3.92;;
44564;SDS011;30275;51.822;-0.326;2023-05-03T02:46:50;7.80;;;4.03;;
44564;SDS011;30275;51.822;-0.326;2023-05-03T02:49:16;7.50;;;4.63;;
44564;SDS011;30275;51.822;-0.326;2023-05-03T02:51:41;7.70;;;4.75;;
44564;SDS011;30275;51.822;-0.326;2023-05-03T02:54:07;8.60;;;4.93;;
44564;SDS011;30275;51.822;-0.326;2023-05-03T02:56:32;8.88;;;4.70;;
44564;SDS011;30275;51.822;-0.326;2023-05-03T02:58:58;8.45;;;4.68;;
44564;SDS011;30275;51.822;-0.326;2023-05-03T03:01:24;8.60;;;4.95;;
44564;SDS011;30275;51.822;-0.326;2023-05-03T03:03:49;7.47;;;4.95;;
44564;SDS011;30275;51.822;-0.326;2023-05-03T03:06:15;10.88;;;5.07;;
44564;SDS011;30275;51.822;-0.326;2023-05-03T03:08:40;9.57;;;4.57;;
44564;SDS011;30275;51.822;-0.326;2023-05-03T03:11:06;7.47;;;4.40;;
44564;SDS011;30275;51.822;-0.326;2023-05-03T03:13:32;9.38;;;5.43;;
44564;SDS011;30275;51.822;-0.326;2023-05-03T03:15:57;9.50;;;4.60;;
44564;SDS011;30275;51.822;-0.326;2023-05-03T03:18:23;9.75;;;4.32;;
44564;SDS011;30275;51.822;-0.326;2023-05-03T03:20:48;9.98;;;5.22;;
44564;SDS011;30275;51.822;-0.326;2023-05-03T03:23:14;8.18;;;5.13;;
44564;SDS011;30275;51.822;-0.326;2023-05-03T03:25:40;6.88;;;4.20;;
44564;SDS011;30275;51.822;-0.326;2023-05-03T03:28:06;9.65;;;4.57;;
44564;SDS011;30275;51.822;-0.326;2023-05-03T03:30:32;10.57;;;4.30;;
44564;SDS011;30275;51.822;-0.326;2023-05-03T03:32:57;6.22;;;4.00;;
44564;SDS011;30275;51.822;-0.326;2023-05-03T03:35:23;8.38;;;4.47;;
44564;SDS011;30275;51.822;-0.326;2023-05-03T03:37:49;8.75;;;4.38;;
44564;SDS011;30275;51.822;-0.326;2023-05-03T03:40:15;7.53;;;4.13;;
44564;SDS011;30275;51.822;-0.326;2023-05-03T03:42:40;9.00;;;4.05;;
44564;SDS011;30275;51.822;-0.326;2023-05-03T03:45:06;7.57;;;3.78;;
44564;SDS011;30275;51.822;-0.326;2023-05-03T03:47:32;6.38;;;4.47;;
44564;SDS011;30275;51.822;-0.326;2023-05-03T03:49:58;7.90;;;3.78;;
44564;SDS011;30275;51.822;-0.326;2023-05-03T03:52:25;8.63;;;4.32;;
44564;SDS011;30275;51.822;-0.326;2023-05-03T03:54:51;6.03;;;3.90;;
44564;SDS011;30275;51.822;-0.326;2023-05-03T03:57:17;6.90;;;4.15;;
44564;SDS011;30275;51.822;-0.326;2023-05-03T03:59:43;6.82;;;3.78;;
44564;SDS011;30275;51.822;-0.326;2023-05-03T04:02:08;8.50;;;4.88;;
44564;SDS011;30275;51.822;-0.326;2023-05-03T04:04:34;10.23;;;5.05;;
44564;SDS011;30275;51.822;-0.326;2023-05-03T04:07:00;9.15;;;5.35;;
44564;SDS011;30275;51.822;-0.326;2023-05-03T04:09:26;9.07;;;4.88;;
44564;SDS011;30275;51.822;-0.326;2023-05-03T04:11:51;6.68;;;4.35;;
44564;SDS011;30275;51.822;-0.326;2023-05-03T04:14:17;6.47;;;4.38;;
44564;SDS011;30275;51.822;-0.326;2023-05-03T04:16:42;9.60;;;4.38;;
44564;SDS011;30275;51.822;-0.326;2023-05-03T04:19:08;7.93;;;4.03;;
44564;SDS011;30275;51.822;-0.326;2023-05-03T04:21:34;8.18;;;4.25;;
44564;SDS011;30275;51.822;-0.326;2023-05-03T04:23:59;7.93;;;4.53;;
44564;SDS011;30275;51.822;-0.326;2023-05-03T04:26:28;8.45;;;4.38;;
44564;SDS011;30275;51.822;-0.326;2023-05-03T04:28:54;9.05;;;4.65;;
44564;SDS011;30275;51.822;-0.326;2023-05-03T04:31:19;11.57;;;4.90;;
44564;SDS011;30275;51.822;-0.326;2023-05-03T04:33:45;6.28;;;4.20;;
44564;SDS011;30275;51.822;-0.326;2023-05-03T04:36:11;9.07;;;4.88;;
44564;SDS011;30275;51.822;-0.326;2023-05-03T04:38:39;8.25;;;4.82;;
44564;SDS011;30275;51.822;-0.326;2023-05-03T04:41:06;9.23;;;6.15;;
44564;SDS011;30275;51.822;-0.326;2023-05-03T04:43:32;9.38;;;5.35;;
44564;SDS011;30275;51.822;-0.326;2023-05-03T04:45:58;10.52;;;5.43;;
44564;SDS011;30275;51.822;-0.326;2023-05-03T04:48:24;11.68;;;5.68;;
44564;SDS011;30275;51.822;-0.326;2023-05-03T04:50:50;10.73;;;5.50;;
44564;SDS011;30275;51.822;-0.326;2023-05-03T04:53:16;10.43;;;5.60;;
44564;SDS011;30275;51.822;-0.326;2023-05-03T04:55:41;8.88;;;5.05;;
44564;SDS011;30275;51.822;-0.326;2023-05-03T04:58:07;11.30;;;5.70;;
44564;SDS011;30275;51.822;-0.326;2023-05-03T05:00:33;13.32;;;5.45;;
44564;SDS011;30275;51.822;-0.326;2023-05-03T05:02:58;7.90;;;4.88;;
44564;SDS011;30275;51.822;-0.326;2023-05-03T05:05:25;11.27;;;5.45;;
44564;SDS011;30275;51.822;-0.326;2023-05-03T05:07:50;9.50;;;5.63;;
44564;SDS011;30275;51.822;-0.326;2023-05-03T05:10:16;8.98;;;4.75;;
44564;SDS011;30275;51.822;-0.326;2023-05-03T05:12:42;8.70;;;5.55;;
44564;SDS011;30275;51.822;-0.326;2023-05-03T05:15:08;8.52;;;5.55;;
44564;SDS011;30275;51.822;-0.326;2023-05-03T05:17:34;7.95;;;4.57;;
44564;SDS011;30275;51.822;-0.326;2023-05-03T05:19:59;8.07;;;4.97;;
44564;SDS011;30275;51.822;-0.326;2023-05-03T05:22:25;7.93;;;5.03;;
44564;SDS011;30275;51.822;-0.326;2023-05-03T05:24:51;8.43;;;4.60;;
44564;SDS011;30275;51.822;-0.326;2023-05-03T05:27:16;7.55;;;4.82;;
44564;SDS011;30275;51.822;-0.326;2023-05-03T05:29:42;8.57;;;4.90;;
44564;SDS011;30275;51.822;-0.326;2023-05-03T05:32:07;11.15;;;5.10;;
44564;SDS011;30275;51.822;-0.326;2023-05-03T05:34:33;7.53;;;5.00;;
44564;SDS011;30275;51.822;-0.326;2023-05-03T05:36:58;8.82;;;5.38;;
44564;SDS011;30275;51.822;-0.326;2023-05-03T05:39:24;10.02;;;5.32;;
44564;SDS011;30275;51.822;-0.326;2023-05-03T05:41:50;10.90;;;6.40;;
44564;SDS011;30275;51.822;-0.326;2023-05-03T05:44:15;14.05;;;6.30;;
44564;SDS011;30275;51.822;-0.326;2023-05-03T05:46:41;8.98;;;5.57;;
44564;SDS011;30275;51.822;-0.326;2023-05-03T05:49:06;10.32;;;6.20;;
44564;SDS011;30275;51.822;-0.326;2023-05-03T05:51:32;14.05;;;7.13;;
44564;SDS011;30275;51.822;-0.326;2023-05-03T05:53:57;12.63;;;6.93;;
44564;SDS011;30275;51.822;-0.326;2023-05-03T05:56:23;13.15;;;7.68;;
44564;SDS011;30275;51.822;-0.326;2023-05-03T05:58:49;13.82;;;7.00;;
44564;SDS011;30275;51.822;-0.326;2023-05-03T06:01:14;12.35;;;6.68;;
44564;SDS011;30275;51.822;-0.326;2023-05-03T06:03:40;21.80;;;7.38;;
44564;SDS011;30275;51.822;-0.326;2023-05-03T06:06:05;17.58;;;7.40;;
44564;SDS011;30275;51.822;-0.326;2023-05-03T06:08:31;18.02;;;8.88;;
44564;SDS011;30275;51.822;-0.326;2023-05-03T06:10:57;15.73;;;7.15;;
44564;SDS011;30275;51.822;-0.326;2023-05-03T06:13:22;12.98;;;6.78;;
44564;SDS011;30275;51.822;-0.326;2023-05-03T06:15:48;13.73;;;7.38;;
44564;SDS011;30275;51.822;-0.326;2023-05-03T06:18:14;15.00;;;6.78;;
44564;SDS011;30275;51.822;-0.326;2023-05-03T06:20:40;16.23;;;7.93;;
44564;SDS011;30275;51.822;-0.326;2023-05-03T06:23:06;16.73;;;7.63;;
44564;SDS011;30275;51.822;-0.326;2023-05-03T06:25:32;14.77;;;7.90;;
44564;SDS011;30275;51.822;-0.326;2023-05-03T06:27:58;18.58;;;7.63;;
44564;SDS011;30275;51.822;-0.326;2023-05-03T06:30:23;10.90;;;6.38;;
44564;SDS011;30275;51.822;-0.326;2023-05-03T06:32:49;5.43;;;4.07;;
44564;SDS011;30275;51.822;-0.326;2023-05-03T06:35:15;9.18;;;6.25;;
44564;SDS011;30275;51.822;-0.326;2023-05-03T06:37:43;12.48;;;7.20;;
44564;SDS011;30275;51.822;-0.326;2023-05-03T06:40:09;13.50;;;6.50;;
44564;SDS011;30275;51.822;-0.326;2023-05-03T06:42:35;8.93;;;5.18;;
44564;SDS011;30275;51.822;-0.326;2023-05-03T06:45:01;7.97;;;5.53;;
44564;SDS011;30275;51.822;-0.326;2023-05-03T06:47:26;13.40;;;6.88;;
44564;SDS011;30275;51.822;-0.326;2023-05-03T06:49:52;12.20;;;7.15;;
44564;SDS011;30275;51.822;-0.326;2023-05-03T06:52:17;10.77;;;5.50;;
44564;SDS011;30275;51.822;-0.326;2023-05-03T06:54:43;10.15;;;5.85;;
44564;SDS011;30275;51.822;-0.326;2023-05-03T06:57:08;11.90;;;5.80;;
44564;SDS011;30275;51.822;-0.326;2023-05-03T06:59:34;13.18;;;6.95;;
44564;SDS011;30275;51.822;-0.326;2023-05-03T07:02:00;10.00;;;5.57;;
44564;SDS011;30275;51.822;-0.326;2023-05-03T07:04:25;14.05;;;7.18;;
44564;SDS011;30275;51.822;-0.326;2023-05-03T07:06:51;7.07;;;5.10;;
44564;SDS011;30275;51.822;-0.326;2023-05-03T07:09:17;15.32;;;6.32;;
44564;SDS011;30275;51.822;-0.326;2023-05-03T07:11:42;8.32;;;5.00;;
44564;SDS011;30275;51.822;-0.326;2023-05-03T07:14:13;7.55;;;5.82;;
44564;SDS011;30275;51.822;-0.326;2023-05-03T07:16:39;7.57;;;4.68;;
44564;SDS011;30275;51.822;-0.326;2023-05-03T07:19:05;7.15;;;3.60;;
44564;SDS011;30275;51.822;-0.326;2023-05-03T07:21:30;8.57;;;4.75;;
44564;SDS011;30275;51.822;-0.326;2023-05-03T07:23:56;6.20;;;4.18;;
44564;SDS011;30275;51.822;-0.326;2023-05-03T07:26:22;9.27;;;5.18;;
44564;SDS011;30275;51.822;-0.326;2023-05-03T07:28:50;7.82;;;4.05;;
44564;SDS011;30275;51.822;-0.326;2023-05-03T07:31:16;6.97;;;3.63;;
44564;SDS011;30275;51.822;-0.326;2023-05-03T07:33:41;5.97;;;3.97;;
44564;SDS011;30275;51.822;-0.326;2023-05-03T07:36:07;6.53;;;4.68;;
44564;SDS011;30275;51.822;-0.326;2023-05-03T07:38:33;7.60;;;4.40;;
44564;SDS011;30275;51.822;-0.326;2023-05-03T07:40:59;7.22;;;4.13;;
44564;SDS011;30275;51.822;-0.326;2023-05-03T07:43:24;6.85;;;4.55;;
44564;SDS011;30275;51.822;-0.326;2023-05-03T07:45:50;5.93;;;4.53;;
44564;SDS011;30275;51.822;-0.326;2023-05-03T07:48:16;10.02;;;5.03;;
44564;SDS011;30275;51.822;-0.326;2023-05-03T07:50:41;10.50;;;4.25;;
44564;SDS011;30275;51.822;-0.326;2023-05-03T07:53:08;9.15;;;4.15;;
44564;SDS011;30275;51.822;-0.326;2023-05-03T07:55:33;7.10;;;3.65;;
44564;SDS011;30275;51.822;-0.326;2023-05-03T07:58:00;8.27;;;4.97;;
44564;SDS011;30275;51.822;-0.326;2023-05-03T08:00:27;6.35;;;4.20;;
44564;SDS011;30275;51.822;-0.326;2023-05-03T08:02:53;8.52;;;4.18;;
44564;SDS011;30275;51.822;-0.326;2023-05-03T08:05:18;10.48;;;4.93;;
44564;SDS011;30275;51.822;-0.326;2023-05-03T08:07:44;10.27;;;5.10;;
44564;SDS011;30275;51.822;-0.326;2023-05-03T08:10:10;7.85;;;4.00;;
44564;SDS011;30275;51.822;-0.326;2023-05-03T08:12:35;6.45;;;4.00;;
44564;SDS011;30275;51.822;-0.326;2023-05-03T08:15:01;7.88;;;4.55;;
44564;SDS011;30275;51.822;-0.326;2023-05-03T08:17:31;7.03;;;4.70;;
44564;SDS011;30275;51.822;-0.326;2023-05-03T08:19:56;8.02;;;4.43;;
44564;SDS011;30275;51.822;-0.326;2023-05-03T08:22:22;9.85;;;4.10;;
44564;SDS011;30275;51.822;-0.326;2023-05-03T08:24:50;8.25;;;4.45;;
44564;SDS011;30275;51.822;-0.326;2023-05-03T08:27:17;6.90;;;3.95;;
44564;SDS011;30275;51.822;-0.326;2023-05-03T08:29:43;7.68;;;4.60;;
44564;SDS011;30275;51.822;-0.326;2023-05-03T08:32:09;8.02;;;4.68;;
44564;SDS011;30275;51.822;-0.326;2023-05-03T08:34:34;6.32;;;3.28;;
44564;SDS011;30275;51.822;-0.326;2023-05-03T08:37:00;5.13;;;3.47;;
44564;SDS011;30275;51.822;-0.326;2023-05-03T08:39:28;7.53;;;4.03;;
44564;SDS011;30275;51.822;-0.326;2023-05-03T08:41:55;8.75;;;4.03;;
44564;SDS011;30275;51.822;-0.326;2023-05-03T08:44:22;5.65;;;3.47;;
44564;SDS011;30275;51.822;-0.326;2023-05-03T08:46:52;6.03;;;3.15;;
44564;SDS011;30275;51.822;-0.326;2023-05-03T08:49:18;6.35;;;3.15;;
44564;SDS011;30275;51.822;-0.326;2023-05-03T08:51:45;6.85;;;3.33;;
44564;SDS011;30275;51.822;-0.326;2023-05-03T08:54:12;8.73;;;4.03;;
44564;SDS011;30275;51.822;-0.326;2023-05-03T08:56:40;3.42;;;3.13;;
44564;SDS011;30275;51.822;-0.326;2023-05-03T08:59:07;6.82;;;3.75;;
44564;SDS011;30275;51.822;-0.326;2023-05-03T09:01:35;6.93;;;4.05;;
44564;SDS011;30275;51.822;-0.326;2023-05-03T09:04:01;5.78;;;3.47;;
44564;SDS011;30275;51.822;-0.326;2023-05-03T09:06:28;7.22;;;4.47;;
44564;SDS011;30275;51.822;-0.326;2023-05-03T09:08:57;6.50;;;4.20;;
44564;SDS011;30275;51.822;-0.326;2023-05-03T09:11:23;5.10;;;3.33;;
44564;SDS011;30275;51.822;-0.326;2023-05-03T09:13:54;6.38;;;3.22;;
44564;SDS011;30275;51.822;-0.326;2023-05-03T09:19:02;6.53;;;4.03;;
44564;SDS011;30275;51.822;-0.326;2023-05-03T09:21:33;7.63;;;4.10;;
44564;SDS011;30275;51.822;-0.326;2023-05-03T09:24:15;8.27;;;3.97;;
44564;SDS011;30275;51.822;-0.326;2023-05-03T09:26:42;5.22;;;3.67;;
44564;SDS011;30275;51.822;-0.326;2023-05-03T09:29:09;5.72;;;3.63;;
44564;SDS011;30275;51.822;-0.326;2023-05-03T09:31:35;6.22;;;3.90;;
44564;SDS011;30275;51.822;-0.326;2023-05-03T09:34:02;9.93;;;5.10;;
44564;SDS011;30275;51.822;-0.326;2023-05-03T09:36:46;7.97;;;4.80;;
44564;SDS011;30275;51.822;-0.326;2023-05-03T09:39:14;8.07;;;5.03;;
44564;SDS011;30275;51.822;-0.326;2023-05-03T09:41:41;6.07;;;4.15;;
44564;SDS011;30275;51.822;-0.326;2023-05-03T09:44:06;6.93;;;4.18;;
44564;SDS011;30275;51.822;-0.326;2023-05-03T09:46:32;6.88;;;4.47;;
44564;SDS011;30275;51.822;-0.326;2023-05-03T09:48:58;7.22;;;4.60;;
44564;SDS011;30275;51.822;-0.326;2023-05-03T09:51:24;6.63;;;4.13;;
44564;SDS011;30275;51.822;-0.326;2023-05-03T09:53:50;9.07;;;5.22;;
44564;SDS011;30275;51.822;-0.326;2023-05-03T09:56:16;7.43;;;4.70;;
44564;SDS011;30275;51.822;-0.326;2023-05-03T09:58:44;6.93;;;4.40;;
44564;SDS011;30275;51.822;-0.326;2023-05-03T10:01:10;9.38;;;4.93;;
44564;SDS011;30275;51.822;-0.326;2023-05-03T10:03:42;10.00;;;5.10;;
44564;SDS011;30275;51.822;-0.326;2023-05-03T10:06:24;6.13;;;4.57;;
44564;SDS011;30275;51.822;-0.326;2023-05-03T10:11:38;9.98;;;4.00;;
44564;SDS011;30275;51.822;-0.326;2023-05-03T10:14:11;7.57;;;5.65;;
44564;SDS011;30275;51.822;-0.326;2023-05-03T10:16:37;8.55;;;5.28;;
44564;SDS011;30275;51.822;-0.326;2023-05-03T10:19:06;8.55;;;4.80;;
44564;SDS011;30275;51.822;-0.326;2023-05-03T10:24:23;9.73;;;5.13;;
44564;SDS011;30275;51.822;-0.326;2023-05-03T10:26:49;8.85;;;5.00;;
44564;SDS011;30275;51.822;-0.326;2023-05-03T10:32:00;11.13;;;6.00;;
44564;SDS011;30275;51.822;-0.326;2023-05-03T10:34:30;10.07;;;5.85;;
44564;SDS011;30275;51.822;-0.326;2023-05-03T10:37:00;9.48;;;5.82;;
44564;SDS011;30275;51.822;-0.326;2023-05-03T10:39:27;8.13;;;5.40;;
44564;SDS011;30275;51.822;-0.326;2023-05-03T10:44:27;8.82;;;5.43;;
44564;SDS011;30275;51.822;-0.326;2023-05-03T10:47:08;6.38;;;5.22;;
44564;SDS011;30275;51.822;-0.326;2023-05-03T10:49:40;15.55;;;5.75;;
44564;SDS011;30275;51.822;-0.326;2023-05-03T10:54:59;11.38;;;4.57;;
44564;SDS011;30275;51.822;-0.326;2023-05-03T10:57:36;11.35;;;5.20;;
44564;SDS011;30275;51.822;-0.326;2023-05-03T11:00:07;8.95;;;4.63;;
44564;SDS011;30275;51.822;-0.326;2023-05-03T11:02:36;6.53;;;4.70;;
44564;SDS011;30275;51.822;-0.326;2023-05-03T11:05:07;15.13;;;5.97;;
44564;SDS011;30275;51.822;-0.326;2023-05-03T11:07:36;11.00;;;4.78;;
44564;SDS011;30275;51.822;-0.326;2023-05-03T11:10:18;10.98;;;5.28;;
44564;SDS011;30275;51.822;-0.326;2023-05-03T11:12:44;10.65;;;6.40;;
44564;SDS011;30275;51.822;-0.326;2023-05-03T11:15:10;7.40;;;4.47;;
44564;SDS011;30275;51.822;-0.326;2023-05-03T11:17:39;8.73;;;4.57;;
44564;SDS011;30275;51.822;-0.326;2023-05-03T11:20:05;7.93;;;4.65;;
44564;SDS011;30275;51.822;-0.326;2023-05-03T11:22:34;7.18;;;4.07;;
44564;SDS011;30275;51.822;-0.326;2023-05-03T11:25:00;7.35;;;4.20;;
44564;SDS011;30275;51.822;-0.326;2023-05-03T11:27:26;6.10;;;3.20;;
44564;SDS011;30275;51.822;-0.326;2023-05-03T11:29:52;7.90;;;4.63;;
44564;SDS011;30275;51.822;-0.326;2023-05-03T11:32:24;6.95;;;3.80;;
44564;SDS011;30275;51.822;-0.326;2023-05-03T11:34:54;6.25;;;3.83;;
44564;SDS011;30275;51.822;-0.326;2023-05-03T11:37:20;7.60;;;3.88;;
44564;SDS011;30275;51.822;-0.326;2023-05-03T11:39:46;7.82;;;3.85;;
44564;SDS011;30275;51.822;-0.326;2023-05-03T11:42:12;9.65;;;5.10;;
44564;SDS011;30275;51.822;-0.326;2023-05-03T11:44:37;7.95;;;3.78;;
44564;SDS011;30275;51.822;-0.326;2023-05-03T11:47:03;7.47;;;4.25;;
44564;SDS011;30275;51.822;-0.326;2023-05-03T11:49:29;10.60;;;5.10;;
44564;SDS011;30275;51.822;-0.326;2023-05-03T11:51:55;8.10;;;4.10;;
44564;SDS011;30275;51.822;-0.326;2023-05-03T11:54:21;5.88;;;3.78;;
44564;SDS011;30275;51.822;-0.326;2023-05-03T11:56:48;9.23;;;4.15;;
44564;SDS011;30275;51.822;-0.326;2023-05-03T11:59:15;8.32;;;4.43;;
44564;SDS011;30275;51.822;-0.326;2023-05-03T12:01:41;6.95;;;3.67;;
44564;SDS011;30275;51.822;-0.326;2023-05-03T12:04:07;8.38;;;3.75;;
44564;SDS011;30275;51.822;-0.326;2023-05-03T12:06:34;11.55;;;4.88;;
44564;SDS011;30275;51.822;-0.326;2023-05-03T12:09:00;10.07;;;4.85;;
44564;SDS011;30275;51.822;-0.326;2023-05-03T12:11:27;11.57;;;4.43;;
44564;SDS011;30275;51.822;-0.326;2023-05-03T12:13:56;7.05;;;3.92;;
44564;SDS011;30275;51.822;-0.326;2023-05-03T12:16:23;6.15;;;4.35;;
44564;SDS011;30275;51.822;-0.326;2023-05-03T12:21:24;8.55;;;4.88;;
44564;SDS011;30275;51.822;-0.326;2023-05-03T12:23:50;9.45;;;5.00;;
44564;SDS011;30275;51.822;-0.326;2023-05-03T12:26:19;7.95;;;5.00;;
44564;SDS011;30275;51.822;-0.326;2023-05-03T12:28:46;11.70;;;4.53;;
44564;SDS011;30275;51.822;-0.326;2023-05-03T12:31:13;6.93;;;4.93;;
44564;SDS011;30275;51.822;-0.326;2023-05-03T12:33:41;6.43;;;3.90;;
44564;SDS011;30275;51.822;-0.326;2023-05-03T12:36:07;6.97;;;4.82;;
44564;SDS011;30275;51.822;-0.326;2023-05-03T12:38:34;5.28;;;4.38;;
44564;SDS011;30275;51.822;-0.326;2023-05-03T12:41:00;8.80;;;5.07;;
44564;SDS011;30275;51.822;-0.326;2023-05-03T12:43:26;7.28;;;5.10;;
44564;SDS011;30275;51.822;-0.326;2023-05-03T12:45:51;6.57;;;4.72;;
44564;SDS011;30275;51.822;-0.326;2023-05-03T12:48:17;9.38;;;4.88;;
44564;SDS011;30275;51.822;-0.326;2023-05-03T12:50:42;7.45;;;5.18;;
44564;SDS011;30275;51.822;-0.326;2023-05-03T12:53:08;10.13;;;5.25;;
44564;SDS011;30275;51.822;-0.326;2023-05-03T12:55:34;6.63;;;4.20;;
44564;SDS011;30275;51.822;-0.326;2023-05-03T12:58:00;8.35;;;5.13;;
44564;SDS011;30275;51.822;-0.326;2023-05-03T13:00:25;9.45;;;5.50;;
44564;SDS011;30275;51.822;-0.326;2023-05-03T13:02:52;22.92;;;11.65;;
44564;SDS011;30275;51.822;-0.326;2023-05-03T13:05:17;11.10;;;8.07;;
44564;SDS011;30275;51.822;-0.326;2023-05-03T13:07:43;4.85;;;4.05;;
44564;SDS011;30275;51.822;-0.326;2023-05-03T13:10:09;10.23;;;5.93;;
44564;SDS011;30275;51.822;-0.326;2023-05-03T13:12:35;8.88;;;5.30;;
44564;SDS011;30275;51.822;-0.326;2023-05-03T13:15:01;7.03;;;5.50;;
44564;SDS011;30275;51.822;-0.326;2023-05-03T13:17:27;9.13;;;5.45;;
44564;SDS011;30275;51.822;-0.326;2023-05-03T13:19:54;8.43;;;5.75;;
44564;SDS011;30275;51.822;-0.326;2023-05-03T13:22:20;7.55;;;5.38;;
44564;SDS011;30275;51.822;-0.326;2023-05-03T13:24:46;9.07;;;5.60;;
44564;SDS011;30275;51.822;-0.326;2023-05-03T13:27:13;9.20;;;5.20;;
44564;SDS011;30275;51.822;-0.326;2023-05-03T13:29:39;6.50;;;5.20;;
44564;SDS011;30275;51.822;-0.326;2023-05-03T13:32:05;8.00;;;5.63;;
44564;SDS011;30275;51.822;-0.326;2023-05-03T13:34:32;9.05;;;5.38;;
44564;SDS011;30275;51.822;-0.326;2023-05-03T13:36:58;7.82;;;5.03;;
44564;SDS011;30275;51.822;-0.326;2023-05-03T13:39:25;11.32;;;6.45;;
44564;SDS011;30275;51.822;-0.326;2023-05-03T13:41:51;8.50;;;6.18;;
44564;SDS011;30275;51.822;-0.326;2023-05-03T13:44:16;11.07;;;6.10;;
44564;SDS011;30275;51.822;-0.326;2023-05-03T13:46:43;13.30;;;7.13;;
44564;SDS011;30275;51.822;-0.326;2023-05-03T13:49:09;8.20;;;5.40;;
44564;SDS011;30275;51.822;-0.326;2023-05-03T13:51:35;12.90;;;6.80;;
44564;SDS011;30275;51.822;-0.326;2023-05-03T13:54:03;11.27;;;6.40;;
44564;SDS011;30275;51.822;-0.326;2023-05-03T13:56:30;9.65;;;6.10;;
44564;SDS011;30275;51.822;-0.326;2023-05-03T13:58:56;9.15;;;5.25;;
44564;SDS011;30275;51.822;-0.326;2023-05-03T14:01:23;8.48;;;5.35;;
44564;SDS011;30275;51.822;-0.326;2023-05-03T14:03:49;11.55;;;6.45;;
44564;SDS011;30275;51.822;-0.326;2023-05-03T14:06:16;9.27;;;5.93;;
44564;SDS011;30275;51.822;-0.326;2023-05-03T14:08:41;10.77;;;6.45;;
44564;SDS011;30275;51.822;-0.326;2023-05-03T14:11:11;10.38;;;6.40;;
44564;SDS011;30275;51.822;-0.326;2023-05-03T14:13:37;10.63;;;5.53;;
44564;SDS011;30275;51.822;-0.326;2023-05-03T14:16:03;8.13;;;5.30;;
44564;SDS011;30275;51.822;-0.326;2023-05-03T14:18:29;10.32;;;5.93;;
44564;SDS011;30275;51.822;-0.326;2023-05-03T14:20:54;12.00;;;6.28;;
44564;SDS011;30275;51.822;-0.326;2023-05-03T14:23:21;10.02;;;5.47;;
44564;SDS011;30275;51.822;-0.326;2023-05-03T14:25:48;10.57;;;5.75;;
44564;SDS011;30275;51.822;-0.326;2023-05-03T14:28:14;10.40;;;6.20;;
44564;SDS011;30275;51.822;-0.326;2023-05-03T14:30:39;9.02;;;6.13;;
44564;SDS011;30275;51.822;-0.326;2023-05-03T14:33:05;9.23;;;5.30;;
44564;SDS011;30275;51.822;-0.326;2023-05-03T14:35:30;9.40;;;6.10;;
44564;SDS011;30275;51.822;-0.326;2023-05-03T14:37:56;10.07;;;6.15;;
44564;SDS011;30275;51.822;-0.326;2023-05-03T14:40:21;9.00;;;5.35;;
44564;SDS011;30275;51.822;-0.326;2023-05-03T14:42:47;11.95;;;5.50;;
44564;SDS011;30275;51.822;-0.326;2023-05-03T14:45:13;9.55;;;5.40;;
44564;SDS011;30275;51.822;-0.326;2023-05-03T14:47:39;9.48;;;5.07;;
44564;SDS011;30275;51.822;-0.326;2023-05-03T14:50:05;6.80;;;4.40;;
44564;SDS011;30275;51.822;-0.326;2023-05-03T14:52:31;6.45;;;4.45;;